createdAt,value
2018-02-16T00:00:20.275Z,2.80
2018-02-16T00:01:23.565Z,2.80
2018-02-16T00:02:26.882Z,2.70
2018-02-16T00:03:29.402Z,2.70
2018-02-16T00:04:32.742Z,2.60
2018-02-16T00:05:35.261Z,2.60
2018-02-16T00:06:38.597Z,2.50
2018-02-16T00:07:41.121Z,2.50
2018-02-16T00:08:43.653Z,2.50
2018-02-16T00:09:46.213Z,2.50
2018-02-16T00:10:48.733Z,2.40
2018-02-16T00:11:51.254Z,2.40
2018-02-16T00:12:53.778Z,2.40
2018-02-16T00:13:56.303Z,2.40
2018-02-16T00:14:59.634Z,2.30
2018-02-16T00:16:02.192Z,2.30
2018-02-16T00:17:04.831Z,2.30
2018-02-16T00:18:08.121Z,2.30
2018-02-16T00:19:10.640Z,2.30
2018-02-16T00:20:13.203Z,2.40
2018-02-16T00:21:15.724Z,2.50
2018-02-16T00:22:18.286Z,2.50
2018-02-16T00:23:20.808Z,2.50
2018-02-16T00:24:23.322Z,2.60
2018-02-16T00:25:25.849Z,2.60
2018-02-16T00:26:28.405Z,2.60
2018-02-16T00:27:30.925Z,2.60
2018-02-16T00:28:33.449Z,2.70
2018-02-16T00:29:36.016Z,2.70
2018-02-16T00:30:38.528Z,2.70
2018-02-16T00:31:41.048Z,2.70
2018-02-16T00:32:43.583Z,2.80
2018-02-16T00:33:46.114Z,2.80
2018-02-16T00:34:48.673Z,2.80
2018-02-16T00:35:51.976Z,2.90
2018-02-16T00:36:54.537Z,2.90
2018-02-16T00:37:57.057Z,2.90
2018-02-16T00:38:59.723Z,2.90
2018-02-16T00:40:02.237Z,2.80
2018-02-16T00:41:04.788Z,2.80
2018-02-16T00:42:08.110Z,2.80
2018-02-16T00:43:10.628Z,2.80
2018-02-16T00:44:13.916Z,2.80
2018-02-16T00:45:17.207Z,2.80
2018-02-16T00:46:20.489Z,2.80
2018-02-16T00:47:23.917Z,2.80
2018-02-16T00:48:26.437Z,2.80
2018-02-16T00:49:29.733Z,2.80
2018-02-16T00:50:32.248Z,2.80
2018-02-16T00:51:34.763Z,2.80
2018-02-16T00:52:38.082Z,2.90
2018-02-16T00:53:40.631Z,2.80
2018-02-16T00:54:43.200Z,2.90
2018-02-16T00:55:45.713Z,2.90
2018-02-16T00:56:48.236Z,2.90
2018-02-16T00:57:50.756Z,2.90
2018-02-16T00:58:53.282Z,2.90
2018-02-16T00:59:56.612Z,3.00
2018-02-16T01:00:59.899Z,3.00
2018-02-16T01:02:03.180Z,3.00
2018-02-16T01:03:06.467Z,3.10
2018-02-16T01:04:09.753Z,3.10
2018-02-16T01:05:13.076Z,3.10
2018-02-16T01:06:15.597Z,3.10
2018-02-16T01:07:18.881Z,3.10
2018-02-16T01:08:22.170Z,3.10
2018-02-16T01:09:25.453Z,3.10
2018-02-16T01:10:28.766Z,3.10
2018-02-16T01:11:31.285Z,3.10
2018-02-16T01:12:33.817Z,3.20
2018-02-16T01:13:36.381Z,3.20
2018-02-16T01:14:38.939Z,3.20
2018-02-16T01:15:41.457Z,3.20
2018-02-16T01:16:44.761Z,3.10
2018-02-16T01:17:48.041Z,3.10
2018-02-16T01:18:51.331Z,3.10
2018-02-16T01:19:53.893Z,3.00
2018-02-16T01:20:57.186Z,3.10
2018-02-16T01:21:59.734Z,3.10
2018-02-16T01:23:03.013Z,3.20
2018-02-16T01:24:06.299Z,3.20
2018-02-16T01:25:09.615Z,3.20
2018-02-16T01:26:12.134Z,3.20
2018-02-16T01:27:14.662Z,3.20
2018-02-16T01:28:17.215Z,3.10
2018-02-16T01:29:19.769Z,3.10
2018-02-16T01:30:22.328Z,3.10
2018-02-16T01:31:25.617Z,3.10
2018-02-16T01:32:28.145Z,3.10
2018-02-16T01:33:30.657Z,3.10
2018-02-16T01:34:33.172Z,3.10
2018-02-16T01:35:35.717Z,3.10
2018-02-16T01:36:38.242Z,3.10
2018-02-16T01:37:41.533Z,3.00
2018-02-16T01:38:44.234Z,2.90
2018-02-16T01:39:46.749Z,2.90
2018-02-16T01:40:50.076Z,2.90
2018-02-16T01:41:52.587Z,2.90
2018-02-16T01:42:55.104Z,2.90
2018-02-16T01:43:57.626Z,2.90
2018-02-16T01:45:00.933Z,2.90
2018-02-16T01:46:04.231Z,2.90
2018-02-16T01:47:06.766Z,2.90
2018-02-16T01:48:10.052Z,2.90
2018-02-16T01:49:13.337Z,2.90
2018-02-16T01:50:16.660Z,3.00
2018-02-16T01:51:19.176Z,3.00
2018-02-16T01:52:22.465Z,2.90
2018-02-16T01:53:25.781Z,2.80
2018-02-16T01:54:28.305Z,2.80
2018-02-16T01:55:30.853Z,2.80
2018-02-16T01:56:33.370Z,2.80
2018-02-16T01:57:35.884Z,2.70
2018-02-16T01:58:38.403Z,2.70
2018-02-16T01:59:40.925Z,2.70
2018-02-16T02:00:43.472Z,2.70
2018-02-16T02:01:45.997Z,2.60
2018-02-16T02:02:48.565Z,2.60
2018-02-16T02:03:51.080Z,2.50
2018-02-16T02:04:53.605Z,2.50
2018-02-16T02:05:56.121Z,2.50
2018-02-16T02:06:58.641Z,2.50
2018-02-16T02:08:01.190Z,2.40
2018-02-16T02:09:03.757Z,2.40
2018-02-16T02:10:06.280Z,2.30
2018-02-16T02:11:08.829Z,2.30
2018-02-16T02:12:11.356Z,2.20
2018-02-16T02:13:13.882Z,2.20
2018-02-16T02:14:16.437Z,2.20
2018-02-16T02:15:18.953Z,2.10
2018-02-16T02:16:21.472Z,2.10
2018-02-16T02:17:24.013Z,2.10
2018-02-16T02:18:26.542Z,2.00
2018-02-16T02:19:29.855Z,2.00
2018-02-16T02:20:32.380Z,2.00
2018-02-16T02:21:35.693Z,2.00
2018-02-16T02:22:38.214Z,2.00
2018-02-16T02:23:40.742Z,2.00
2018-02-16T02:24:43.292Z,2.00
2018-02-16T02:25:45.818Z,2.00
2018-02-16T02:26:48.340Z,1.90
2018-02-16T02:27:50.889Z,1.90
2018-02-16T02:28:53.400Z,1.80
2018-02-16T02:29:55.916Z,1.80
2018-02-16T02:30:58.482Z,1.80
2018-02-16T02:32:01.004Z,1.90
2018-02-16T02:33:03.519Z,1.90
2018-02-16T02:34:06.046Z,1.90
2018-02-16T02:35:08.601Z,1.90
2018-02-16T02:36:11.121Z,1.90
2018-02-16T02:37:13.638Z,1.90
2018-02-16T02:38:16.166Z,1.80
2018-02-16T02:39:18.684Z,1.80
2018-02-16T02:40:22.013Z,1.90
2018-02-16T02:41:24.568Z,1.80
2018-02-16T02:42:27.093Z,1.90
2018-02-16T02:43:29.609Z,2.00
2018-02-16T02:44:32.140Z,2.10
2018-02-16T02:45:35.477Z,2.10
2018-02-16T02:46:37.994Z,2.20
2018-02-16T02:47:41.278Z,2.20
2018-02-16T02:48:44.561Z,2.20
2018-02-16T02:49:48.778Z,2.30
2018-02-16T02:50:51.331Z,2.20
2018-02-16T02:51:54.623Z,2.20
2018-02-16T02:52:57.916Z,2.20
2018-02-16T02:54:00.446Z,2.20
2018-02-16T02:55:02.967Z,2.20
2018-02-16T02:56:05.532Z,2.20
2018-02-16T02:57:08.056Z,2.20
2018-02-16T02:58:11.337Z,2.20
2018-02-16T02:59:13.857Z,2.20
2018-02-16T03:00:16.369Z,2.20
2018-02-16T03:01:19.704Z,2.10
2018-02-16T03:02:22.220Z,2.10
2018-02-16T03:03:25.512Z,2.10
2018-02-16T03:04:28.800Z,2.10
2018-02-16T03:05:32.091Z,2.10
2018-02-16T03:06:34.645Z,2.10
2018-02-16T03:07:37.934Z,2.10
2018-02-16T03:08:41.253Z,2.00
2018-02-16T03:09:43.770Z,2.10
2018-02-16T03:10:47.054Z,2.10
2018-02-16T03:11:50.345Z,2.10
2018-02-16T03:12:53.814Z,2.10
2018-02-16T03:13:56.345Z,2.10
2018-02-16T03:14:58.861Z,2.10
2018-02-16T03:16:02.150Z,2.00
2018-02-16T03:17:05.438Z,2.00
2018-02-16T03:18:08.763Z,2.00
2018-02-16T03:19:11.285Z,2.00
2018-02-16T03:20:14.568Z,2.00
2018-02-16T03:21:17.864Z,2.00
2018-02-16T03:22:20.385Z,2.00
2018-02-16T03:23:22.937Z,2.10
2018-02-16T03:24:25.488Z,2.10
2018-02-16T03:25:28.012Z,2.20
2018-02-16T03:26:31.338Z,2.20
2018-02-16T03:27:33.864Z,2.20
2018-02-16T03:28:37.153Z,2.20
2018-02-16T03:29:40.470Z,2.10
2018-02-16T03:30:42.991Z,2.10
2018-02-16T03:31:46.272Z,2.10
2018-02-16T03:32:48.793Z,2.10
2018-02-16T03:33:51.308Z,2.20
2018-02-16T03:34:54.622Z,2.20
2018-02-16T03:35:57.169Z,2.20
2018-02-16T03:37:00.489Z,2.20
2018-02-16T03:38:03.005Z,2.20
2018-02-16T03:39:06.288Z,2.30
2018-02-16T03:40:08.850Z,2.30
2018-02-16T03:41:11.364Z,2.40
2018-02-16T03:42:13.922Z,2.40
2018-02-16T03:43:16.441Z,2.40
2018-02-16T03:44:18.956Z,2.40
2018-02-16T03:45:21.494Z,2.40
2018-02-16T03:46:24.812Z,2.50
2018-02-16T03:47:27.374Z,2.50
2018-02-16T03:48:29.893Z,2.50
2018-02-16T03:49:32.408Z,2.50
2018-02-16T03:50:34.922Z,2.50
2018-02-16T03:51:37.432Z,2.60
2018-02-16T03:52:39.978Z,2.60
2018-02-16T03:53:43.260Z,2.80
2018-02-16T03:54:46.551Z,2.80
2018-02-16T03:55:49.840Z,2.80
2018-02-16T03:56:52.390Z,2.70
2018-02-16T03:57:55.706Z,2.80
2018-02-16T03:58:58.221Z,2.80
2018-02-16T04:00:00.737Z,2.80
2018-02-16T04:01:03.249Z,2.80
2018-02-16T04:02:05.801Z,2.80
2018-02-16T04:03:08.320Z,2.80
2018-02-16T04:04:10.833Z,2.80
2018-02-16T04:05:13.357Z,2.80
2018-02-16T04:06:15.874Z,2.80
2018-02-16T04:07:18.432Z,2.70
2018-02-16T04:08:20.950Z,2.70
2018-02-16T04:09:23.472Z,2.70
2018-02-16T04:10:26.033Z,2.70
2018-02-16T04:11:28.548Z,2.60
2018-02-16T04:12:31.078Z,2.60
2018-02-16T04:13:33.609Z,2.60
2018-02-16T04:14:36.128Z,2.50
2018-02-16T04:15:39.450Z,2.50
2018-02-16T04:16:41.968Z,2.50
2018-02-16T04:17:44.496Z,2.50
2018-02-16T04:18:47.059Z,2.50
2018-02-16T04:19:49.585Z,2.50
2018-02-16T04:20:52.921Z,2.40
2018-02-16T04:21:55.439Z,2.40
2018-02-16T04:22:57.965Z,2.40
2018-02-16T04:24:00.524Z,2.40
2018-02-16T04:25:03.075Z,2.40
2018-02-16T04:26:05.595Z,2.40
2018-02-16T04:27:08.880Z,2.30
2018-02-16T04:28:12.161Z,2.30
2018-02-16T04:29:15.489Z,2.30
2018-02-16T04:30:18.047Z,2.30
2018-02-16T04:31:20.568Z,2.20
2018-02-16T04:32:23.085Z,2.20
2018-02-16T04:33:25.605Z,2.20
2018-02-16T04:34:28.897Z,2.20
2018-02-16T04:35:32.225Z,2.10
2018-02-16T04:36:34.745Z,2.10
2018-02-16T04:37:38.033Z,2.10
2018-02-16T04:38:41.318Z,2.10
2018-02-16T04:39:44.601Z,2.10
2018-02-16T04:40:47.155Z,2.10
2018-02-16T04:41:50.437Z,2.10
2018-02-16T04:42:53.776Z,2.10
2018-02-16T04:43:56.333Z,2.10
2018-02-16T04:44:58.853Z,2.10
2018-02-16T04:46:01.366Z,2.10
2018-02-16T04:47:03.888Z,2.10
2018-02-16T04:48:07.179Z,2.10
2018-02-16T04:49:10.492Z,2.10
2018-02-16T04:50:13.017Z,2.10
2018-02-16T04:51:15.540Z,2.10
2018-02-16T04:52:18.093Z,2.00
2018-02-16T04:53:20.614Z,2.00
2018-02-16T04:54:23.906Z,2.10
2018-02-16T04:55:27.198Z,2.10
2018-02-16T04:56:30.515Z,2.10
2018-02-16T04:57:33.033Z,2.10
2018-02-16T04:58:35.557Z,2.10
2018-02-16T04:59:38.113Z,2.20
2018-02-16T05:00:40.626Z,2.10
2018-02-16T05:01:43.196Z,2.10
2018-02-16T05:02:45.713Z,2.10
2018-02-16T05:03:48.237Z,2.10
2018-02-16T05:04:51.525Z,2.20
2018-02-16T05:05:54.818Z,2.20
2018-02-16T05:06:58.363Z,2.20
2018-02-16T05:08:00.881Z,2.20
2018-02-16T05:09:03.396Z,2.20
2018-02-16T05:10:05.916Z,2.20
2018-02-16T05:11:08.435Z,2.20
2018-02-16T05:12:10.980Z,2.20
2018-02-16T05:13:13.500Z,2.20
2018-02-16T05:14:16.048Z,2.30
2018-02-16T05:15:19.413Z,2.30
2018-02-16T05:16:21.931Z,2.30
2018-02-16T05:17:24.498Z,2.30
2018-02-16T05:18:27.021Z,2.30
2018-02-16T05:19:29.585Z,2.30
2018-02-16T05:20:32.104Z,2.30
2018-02-16T05:21:34.620Z,2.30
2018-02-16T05:22:37.136Z,2.30
2018-02-16T05:23:39.653Z,2.30
2018-02-16T05:24:42.213Z,2.20
2018-02-16T05:25:44.733Z,2.30
2018-02-16T05:26:47.253Z,2.30
2018-02-16T05:27:49.768Z,2.30
2018-02-16T05:28:52.284Z,2.20
2018-02-16T05:29:54.835Z,2.20
2018-02-16T05:30:57.403Z,2.20
2018-02-16T05:31:59.925Z,2.20
2018-02-16T05:33:02.476Z,2.20
2018-02-16T05:34:05.003Z,2.20
2018-02-16T05:35:07.524Z,2.20
2018-02-16T05:36:10.045Z,2.20
2018-02-16T05:37:12.568Z,2.10
2018-02-16T05:38:15.140Z,2.10
2018-02-16T05:39:17.657Z,2.10
2018-02-16T05:40:20.940Z,2.00
2018-02-16T05:41:24.234Z,2.00
2018-02-16T05:42:27.512Z,2.10
2018-02-16T05:43:30.824Z,2.10
2018-02-16T05:44:33.340Z,2.00
2018-02-16T05:45:35.865Z,2.10
2018-02-16T05:46:38.381Z,2.10
2018-02-16T05:47:40.933Z,2.00
2018-02-16T05:48:43.493Z,2.00
2018-02-16T05:49:46.014Z,2.00
2018-02-16T05:50:48.539Z,2.00
2018-02-16T05:51:51.063Z,2.00
2018-02-16T05:52:53.593Z,2.00
2018-02-16T05:53:57.045Z,2.10
2018-02-16T05:54:59.562Z,2.10
2018-02-16T05:56:02.128Z,2.10
2018-02-16T05:57:04.666Z,2.10
2018-02-16T05:58:07.198Z,2.10
2018-02-16T05:59:09.717Z,2.10
2018-02-16T06:00:13.000Z,2.10
2018-02-16T06:01:16.320Z,2.10
2018-02-16T06:02:18.842Z,2.10
2018-02-16T06:03:22.134Z,2.10
2018-02-16T06:04:24.661Z,2.10
2018-02-16T06:05:27.184Z,2.10
2018-02-16T06:06:29.752Z,2.10
2018-02-16T06:07:32.274Z,2.10
2018-02-16T06:08:34.802Z,2.10
2018-02-16T06:09:37.316Z,2.10
2018-02-16T06:10:40.616Z,2.10
2018-02-16T06:11:43.173Z,2.10
2018-02-16T06:12:46.461Z,2.00
2018-02-16T06:13:49.776Z,2.00
2018-02-16T06:14:52.316Z,2.00
2018-02-16T06:15:54.841Z,2.00
2018-02-16T06:16:57.381Z,2.00
2018-02-16T06:17:59.986Z,2.00
2018-02-16T06:19:02.645Z,2.00
2018-02-16T06:20:05.169Z,2.00
2018-02-16T06:21:07.687Z,2.00
2018-02-16T06:22:10.252Z,1.90
2018-02-16T06:23:12.777Z,1.90
2018-02-16T06:24:15.304Z,1.90
2018-02-16T06:25:18.600Z,2.00
2018-02-16T06:26:21.125Z,2.00
2018-02-16T06:27:23.712Z,2.00
2018-02-16T06:28:26.995Z,2.00
2018-02-16T06:29:29.518Z,2.00
2018-02-16T06:30:32.042Z,2.00
2018-02-16T06:31:35.329Z,2.00
2018-02-16T06:32:38.650Z,2.00
2018-02-16T06:33:41.173Z,2.00
2018-02-16T06:34:44.488Z,2.10
2018-02-16T06:35:47.008Z,2.10
2018-02-16T06:36:49.530Z,2.10
2018-02-16T06:37:52.053Z,2.10
2018-02-16T06:38:55.337Z,2.10
2018-02-16T06:39:58.656Z,2.10
2018-02-16T06:41:01.198Z,2.10
2018-02-16T06:42:03.750Z,2.10
2018-02-16T06:43:07.029Z,2.10
2018-02-16T06:44:10.324Z,2.00
2018-02-16T06:45:13.641Z,2.00
2018-02-16T06:46:16.198Z,2.00
2018-02-16T06:47:18.716Z,2.00
2018-02-16T06:48:21.241Z,2.00
2018-02-16T06:49:23.760Z,2.00
2018-02-16T06:50:27.088Z,2.00
2018-02-16T06:51:29.608Z,2.00
2018-02-16T06:52:32.141Z,2.00
2018-02-16T06:53:34.659Z,2.00
2018-02-16T06:55:47.612Z,2.00
2018-02-16T06:56:50.132Z,2.00
2018-02-16T06:57:53.412Z,2.00
2018-02-16T06:58:56.697Z,2.00
2018-02-16T06:59:59.985Z,2.00
2018-02-16T07:01:02.554Z,2.00
2018-02-16T07:02:05.883Z,2.00
2018-02-16T07:03:08.402Z,2.00
2018-02-16T07:04:11.684Z,1.90
2018-02-16T07:05:14.999Z,1.90
2018-02-16T07:06:17.518Z,1.90
2018-02-16T07:07:20.141Z,1.90
2018-02-16T07:08:22.702Z,1.90
2018-02-16T07:09:25.257Z,1.90
2018-02-16T07:10:27.792Z,1.90
2018-02-16T07:11:30.306Z,1.90
2018-02-16T07:12:32.825Z,1.90
2018-02-16T07:13:36.153Z,2.00
2018-02-16T07:14:38.720Z,1.90
2018-02-16T07:15:41.257Z,1.90
2018-02-16T07:16:44.541Z,2.00
2018-02-16T07:17:47.826Z,2.00
2018-02-16T07:18:51.106Z,2.00
2018-02-16T07:19:53.676Z,2.00
2018-02-16T07:20:56.960Z,2.00
2018-02-16T07:22:00.245Z,2.00
2018-02-16T07:23:03.588Z,2.00
2018-02-16T07:24:06.111Z,2.00
2018-02-16T07:25:08.667Z,2.00
2018-02-16T07:26:11.189Z,2.10
2018-02-16T07:27:13.709Z,2.10
2018-02-16T07:28:16.233Z,2.10
2018-02-16T07:29:18.812Z,2.20
2018-02-16T07:30:22.107Z,2.20
2018-02-16T07:31:25.402Z,2.10
2018-02-16T07:32:27.922Z,2.10
2018-02-16T07:33:30.438Z,2.20
2018-02-16T07:34:32.993Z,2.10
2018-02-16T07:35:35.522Z,2.20
2018-02-16T07:36:38.085Z,2.20
2018-02-16T07:37:40.600Z,2.20
2018-02-16T07:38:43.117Z,2.20
2018-02-16T07:39:45.632Z,2.20
2018-02-16T07:40:48.157Z,2.20
2018-02-16T07:41:50.804Z,2.30
2018-02-16T07:42:53.326Z,2.30
2018-02-16T07:43:55.844Z,2.30
2018-02-16T07:44:58.374Z,2.30
2018-02-16T07:46:00.895Z,2.30
2018-02-16T07:47:04.223Z,2.30
2018-02-16T07:48:06.744Z,2.20
2018-02-16T07:49:09.309Z,2.20
2018-02-16T07:50:11.834Z,2.30
2018-02-16T07:51:14.352Z,2.30
2018-02-16T07:52:17.637Z,2.40
2018-02-16T07:53:20.925Z,2.40
2018-02-16T07:54:24.241Z,2.40
2018-02-16T07:55:26.765Z,2.40
2018-02-16T07:56:29.313Z,2.50
2018-02-16T07:57:31.869Z,2.50
2018-02-16T07:58:34.381Z,2.50
2018-02-16T07:59:36.905Z,2.50
2018-02-16T08:00:39.460Z,2.50
2018-02-16T08:01:41.974Z,2.60
2018-02-16T08:02:45.258Z,2.60
2018-02-16T08:03:48.545Z,2.60
2018-02-16T08:04:51.833Z,2.60
2018-02-16T08:05:54.394Z,2.60
2018-02-16T08:06:57.676Z,2.70
2018-02-16T08:08:00.957Z,2.70
2018-02-16T08:09:04.277Z,2.70
2018-02-16T08:10:06.831Z,2.70
2018-02-16T08:11:09.418Z,2.70
2018-02-16T08:12:11.936Z,2.70
2018-02-16T08:13:15.258Z,2.70
2018-02-16T08:14:17.815Z,2.70
2018-02-16T08:15:20.337Z,2.70
2018-02-16T08:16:22.864Z,2.70
2018-02-16T08:17:25.387Z,2.70
2018-02-16T08:18:28.669Z,2.80
2018-02-16T08:19:31.993Z,2.80
2018-02-16T08:20:34.506Z,2.70
2018-02-16T08:21:37.033Z,2.80
2018-02-16T08:22:39.551Z,2.80
2018-02-16T08:23:42.842Z,2.80
2018-02-16T08:24:46.169Z,2.90
2018-02-16T08:25:48.690Z,2.80
2018-02-16T08:26:51.987Z,2.90
2018-02-16T08:27:54.512Z,2.90
2018-02-16T08:28:57.034Z,3.00
2018-02-16T08:29:59.597Z,2.90
2018-02-16T08:31:02.127Z,3.00
2018-02-16T08:32:05.424Z,3.00
2018-02-16T08:33:08.722Z,3.00
2018-02-16T08:34:11.250Z,3.00
2018-02-16T08:35:13.809Z,2.90
2018-02-16T08:36:16.332Z,3.00
2018-02-16T08:37:18.852Z,3.00
2018-02-16T08:38:21.410Z,3.00
2018-02-16T08:39:23.929Z,3.00
2018-02-16T08:40:26.449Z,3.00
2018-02-16T08:41:29.016Z,3.00
2018-02-16T08:42:31.550Z,2.90
2018-02-16T08:43:34.113Z,3.00
2018-02-16T08:44:36.633Z,3.00
2018-02-16T08:45:39.189Z,3.00
2018-02-16T08:46:41.709Z,3.00
2018-02-16T08:47:44.221Z,3.10
2018-02-16T08:48:47.538Z,3.10
2018-02-16T08:49:50.063Z,3.00
2018-02-16T08:50:52.586Z,3.10
2018-02-16T08:51:55.107Z,3.10
2018-02-16T08:52:58.423Z,3.20
2018-02-16T08:54:00.953Z,3.20
2018-02-16T08:55:03.471Z,3.10
2018-02-16T08:56:05.994Z,3.20
2018-02-16T08:57:09.292Z,3.20
2018-02-16T08:58:11.846Z,3.20
2018-02-16T08:59:15.177Z,3.20
2018-02-16T09:00:17.689Z,3.20
2018-02-16T09:01:20.971Z,3.20
2018-02-16T09:02:24.262Z,3.20
2018-02-16T09:03:27.552Z,3.10
2018-02-16T09:04:30.873Z,3.10
2018-02-16T09:05:33.397Z,3.10
2018-02-16T09:06:36.684Z,3.20
2018-02-16T09:07:39.973Z,3.30
2018-02-16T09:08:43.262Z,3.30
2018-02-16T09:09:45.817Z,3.30
2018-02-16T09:10:49.105Z,3.30
2018-02-16T09:11:52.384Z,3.20
2018-02-16T09:12:55.700Z,3.30
2018-02-16T09:13:58.222Z,3.20
2018-02-16T09:15:01.564Z,3.30
2018-02-16T09:16:04.125Z,3.30
2018-02-16T09:17:06.635Z,3.30
2018-02-16T09:18:09.158Z,3.40
2018-02-16T09:19:14.460Z,3.40
2018-02-16T09:20:16.976Z,3.40
2018-02-16T09:21:20.287Z,3.50
2018-02-16T09:22:23.585Z,3.50
2018-02-16T09:23:26.869Z,3.60
2018-02-16T09:24:29.393Z,3.50
2018-02-16T09:25:32.141Z,3.60
2018-02-16T09:26:34.665Z,3.70
2018-02-16T09:27:37.944Z,3.80
2018-02-16T09:28:41.223Z,3.90
2018-02-16T09:29:44.541Z,4.00
2018-02-16T09:30:47.053Z,3.90
2018-02-16T09:31:49.588Z,4.10
2018-02-16T09:32:52.114Z,4.00
2018-02-16T09:33:55.397Z,4.10
2018-02-16T09:34:58.721Z,4.10
2018-02-16T09:36:01.283Z,4.10
2018-02-16T09:37:03.811Z,4.00
2018-02-16T09:38:07.104Z,4.00
2018-02-16T09:39:15.654Z,3.90
2018-02-16T09:40:18.216Z,3.90
2018-02-16T09:41:20.744Z,3.90
2018-02-16T09:42:24.025Z,3.90
2018-02-16T09:43:27.304Z,3.90
2018-02-16T09:44:30.596Z,3.80
2018-02-16T09:45:33.914Z,3.70
2018-02-16T09:46:36.430Z,3.70
2018-02-16T09:47:39.713Z,3.70
2018-02-16T09:48:43.048Z,3.70
2018-02-16T09:49:45.564Z,3.70
2018-02-16T09:50:48.848Z,3.80
2018-02-16T09:51:52.132Z,3.80
2018-02-16T09:52:55.411Z,3.80
2018-02-16T09:53:57.956Z,3.80
2018-02-16T09:55:00.481Z,3.80
2018-02-16T09:56:03.193Z,3.90
2018-02-16T09:57:05.720Z,3.90
2018-02-16T09:58:08.264Z,3.90
2018-02-16T09:59:11.673Z,3.80
2018-02-16T10:00:14.193Z,3.80
2018-02-16T10:01:17.505Z,3.90
2018-02-16T10:02:20.780Z,3.90
2018-02-16T10:03:24.070Z,4.00
2018-02-16T10:04:26.628Z,4.00
2018-02-16T10:05:29.913Z,4.70
2018-02-16T10:06:33.205Z,5.30
2018-02-16T10:07:35.756Z,5.30
2018-02-16T10:08:39.072Z,6.80
2018-02-16T10:09:41.594Z,6.80
2018-02-16T10:10:44.113Z,7.60
2018-02-16T10:11:46.634Z,8.30
2018-02-16T10:12:50.002Z,9.40
2018-02-16T10:13:52.497Z,9.40
2018-02-16T10:14:55.792Z,10.20
2018-02-16T10:15:58.317Z,10.20
2018-02-16T10:17:00.854Z,10.50
2018-02-16T10:18:03.425Z,10.60
2018-02-16T10:19:05.950Z,10.50
2018-02-16T10:20:09.246Z,10.50
2018-02-16T10:21:11.871Z,10.50
2018-02-16T10:22:14.397Z,10.60
2018-02-16T10:23:17.057Z,10.50
2018-02-16T10:24:19.581Z,10.50
2018-02-16T10:25:22.101Z,10.60
2018-02-16T10:26:24.671Z,10.00
2018-02-16T10:27:27.193Z,10.00
2018-02-16T10:28:30.517Z,10.40
2018-02-16T10:29:33.041Z,10.40
2018-02-16T10:30:36.329Z,10.90
2018-02-16T10:31:39.619Z,11.20
2018-02-16T10:32:42.904Z,11.00
2018-02-16T10:33:45.487Z,10.90
2018-02-16T10:34:48.009Z,10.40
2018-02-16T10:35:50.538Z,10.30
2018-02-16T10:36:53.060Z,9.90
2018-02-16T10:37:56.340Z,9.60
2018-02-16T10:38:59.662Z,9.40
2018-02-16T10:40:02.177Z,9.40
2018-02-16T10:41:04.700Z,9.70
2018-02-16T10:42:07.228Z,9.80
2018-02-16T10:43:10.512Z,9.90
2018-02-16T10:44:13.833Z,9.90
2018-02-16T10:45:16.349Z,9.90
2018-02-16T10:46:18.874Z,10.10
2018-02-16T10:47:22.213Z,10.10
2018-02-16T10:48:25.510Z,10.00
2018-02-16T10:49:28.069Z,10.00
2018-02-16T10:50:30.601Z,10.20
2018-02-16T10:51:33.912Z,9.90
2018-02-16T10:52:37.200Z,9.70
2018-02-16T10:53:40.481Z,9.70
2018-02-16T10:54:43.793Z,9.60
2018-02-16T10:55:46.313Z,9.60
2018-02-16T10:56:48.845Z,9.50
2018-02-16T10:57:51.356Z,9.50
2018-02-16T10:58:54.650Z,9.90
2018-02-16T10:59:57.976Z,10.20
2018-02-16T11:01:06.189Z,10.20
2018-02-16T11:02:14.333Z,10.40
2018-02-16T11:03:23.329Z,10.60
2018-02-16T11:04:31.427Z,10.60
2018-02-16T11:05:40.371Z,10.50
2018-02-16T11:06:48.887Z,10.50
2018-02-16T11:07:51.405Z,10.40
2018-02-16T11:08:59.593Z,10.50
2018-02-16T11:10:02.162Z,10.90
2018-02-16T11:11:04.696Z,11.40
2018-02-16T11:12:07.210Z,11.50
2018-02-16T11:13:10.500Z,10.60
2018-02-16T11:14:13.817Z,10.60
2018-02-16T11:15:17.099Z,10.50
2018-02-16T11:16:19.630Z,10.40
2018-02-16T11:17:22.153Z,10.30
2018-02-16T11:18:24.696Z,10.20
2018-02-16T11:19:27.256Z,10.30
2018-02-16T11:20:29.781Z,10.40
2018-02-16T11:21:32.301Z,10.60
2018-02-16T11:22:34.828Z,10.30
2018-02-16T11:23:38.123Z,10.50
2018-02-16T11:24:41.452Z,10.70
2018-02-16T11:25:43.980Z,10.70
2018-02-16T11:26:47.273Z,10.90
2018-02-16T11:27:49.802Z,10.90
2018-02-16T11:28:52.341Z,10.80
2018-02-16T11:29:54.902Z,10.80
2018-02-16T11:30:57.427Z,10.50
2018-02-16T11:32:00.709Z,9.90
2018-02-16T11:33:04.038Z,9.50
2018-02-16T11:34:06.548Z,9.50
2018-02-16T11:35:09.960Z,9.40
2018-02-16T11:36:12.480Z,9.40
2018-02-16T11:37:15.003Z,9.30
2018-02-16T11:38:17.525Z,9.30
2018-02-16T11:39:20.048Z,9.20
2018-02-16T11:40:22.674Z,9.00
2018-02-16T11:41:25.179Z,9.10
2018-02-16T11:42:27.690Z,9.10
2018-02-16T11:43:30.980Z,9.10
2018-02-16T11:44:34.264Z,9.10
2018-02-16T11:45:37.543Z,9.30
2018-02-16T11:46:40.873Z,9.50
2018-02-16T11:47:43.386Z,9.50
2018-02-16T11:48:45.904Z,9.60
2018-02-16T11:49:48.421Z,9.60
2018-02-16T11:50:50.933Z,9.50
2018-02-16T11:51:53.492Z,9.40
2018-02-16T11:52:56.013Z,9.20
2018-02-16T11:53:58.523Z,9.20
2018-02-16T11:55:01.049Z,9.20
2018-02-16T11:56:03.596Z,9.00
2018-02-16T11:57:06.137Z,8.90
2018-02-16T11:58:08.652Z,8.70
2018-02-16T11:59:11.932Z,8.70
2018-02-16T12:00:14.486Z,8.60
2018-02-16T12:01:17.045Z,8.80
2018-02-16T12:02:19.567Z,9.00
2018-02-16T12:03:22.150Z,9.00
2018-02-16T12:04:24.659Z,9.10
2018-02-16T12:05:27.183Z,9.20
2018-02-16T12:06:29.740Z,9.50
2018-02-16T12:07:32.267Z,9.80
2018-02-16T12:08:35.566Z,10.00
2018-02-16T12:09:38.860Z,10.10
2018-02-16T12:10:41.425Z,10.10
2018-02-16T12:11:43.949Z,10.00
2018-02-16T12:12:46.474Z,10.20
2018-02-16T12:13:49.031Z,10.40
2018-02-16T12:14:51.562Z,10.30
2018-02-16T12:15:54.889Z,10.20
2018-02-16T12:16:57.411Z,10.20
2018-02-16T12:17:59.977Z,10.40
2018-02-16T12:19:03.273Z,10.00
2018-02-16T12:20:06.560Z,9.80
2018-02-16T12:21:09.845Z,9.90
2018-02-16T12:22:13.124Z,10.20
2018-02-16T12:23:16.447Z,10.60
2018-02-16T12:24:18.973Z,10.60
2018-02-16T12:25:22.335Z,10.90
2018-02-16T12:26:24.858Z,10.90
2018-02-16T12:27:27.427Z,11.10
2018-02-16T12:28:29.952Z,11.10
2018-02-16T12:29:33.240Z,10.60
2018-02-16T12:30:36.529Z,10.90
2018-02-16T12:31:39.819Z,11.10
2018-02-16T12:32:43.153Z,11.20
2018-02-16T12:33:45.669Z,11.20
2018-02-16T12:34:48.196Z,11.50
2018-02-16T12:35:50.738Z,11.80
2018-02-16T12:36:53.268Z,12.20
2018-02-16T12:37:56.581Z,12.30
2018-02-16T12:38:59.101Z,12.30
2018-02-16T12:40:02.390Z,13.00
2018-02-16T12:41:05.676Z,13.30
2018-02-16T12:42:09.005Z,13.40
2018-02-16T12:43:11.526Z,13.40
2018-02-16T12:44:14.822Z,13.60
2018-02-16T12:45:17.341Z,13.50
2018-02-16T12:46:19.874Z,13.30
2018-02-16T12:47:22.440Z,13.10
2018-02-16T12:48:24.957Z,12.70
2018-02-16T12:49:27.472Z,12.60
2018-02-16T12:50:30.007Z,13.10
2018-02-16T12:51:33.297Z,13.60
2018-02-16T12:52:36.057Z,13.50
2018-02-16T12:53:39.336Z,13.50
2018-02-16T12:54:42.653Z,13.60
2018-02-16T12:55:45.179Z,13.60
2018-02-16T12:56:47.702Z,13.80
2018-02-16T12:57:50.237Z,14.10
2018-02-16T12:58:52.761Z,13.40
2018-02-16T12:59:55.332Z,13.20
2018-02-16T13:00:57.857Z,13.10
2018-02-16T13:02:00.392Z,13.50
2018-02-16T13:03:03.729Z,13.70
2018-02-16T13:04:06.253Z,13.60
2018-02-16T13:05:08.783Z,13.40
2018-02-16T13:06:11.301Z,13.30
2018-02-16T13:07:13.828Z,13.50
2018-02-16T13:08:16.372Z,13.30
2018-02-16T13:09:18.889Z,13.20
2018-02-16T13:10:21.415Z,13.10
2018-02-16T13:11:23.933Z,13.00
2018-02-16T13:12:26.458Z,13.10
2018-02-16T13:13:29.781Z,13.20
2018-02-16T13:14:32.293Z,13.10
2018-02-16T13:15:34.808Z,13.20
2018-02-16T13:16:37.322Z,13.20
2018-02-16T13:17:39.852Z,13.20
2018-02-16T13:18:42.420Z,13.10
2018-02-16T13:19:45.021Z,12.80
2018-02-16T13:20:47.545Z,12.60
2018-02-16T13:21:50.064Z,12.80
2018-02-16T13:22:52.587Z,12.50
2018-02-16T13:23:55.112Z,12.60
2018-02-16T13:24:58.431Z,12.40
2018-02-16T13:26:00.977Z,12.40
2018-02-16T13:27:04.253Z,12.10
2018-02-16T13:28:07.536Z,11.70
2018-02-16T13:29:10.819Z,11.70
2018-02-16T13:30:17.995Z,11.60
2018-02-16T13:31:21.282Z,11.40
2018-02-16T13:32:23.814Z,11.40
2018-02-16T13:33:26.346Z,11.70
2018-02-16T13:34:28.869Z,11.90
2018-02-16T13:35:32.192Z,12.30
2018-02-16T13:36:34.747Z,12.30
2018-02-16T13:37:37.281Z,12.60
2018-02-16T13:38:40.572Z,12.70
2018-02-16T13:39:43.906Z,12.90
2018-02-16T13:40:46.420Z,12.90
2018-02-16T13:41:49.717Z,12.90
2018-02-16T13:42:52.231Z,12.80
2018-02-16T13:43:54.802Z,12.80
2018-02-16T13:44:57.339Z,12.40
2018-02-16T13:45:59.862Z,12.00
2018-02-16T13:47:03.165Z,11.00
2018-02-16T13:48:05.700Z,11.00
2018-02-16T13:49:08.284Z,10.80
2018-02-16T13:50:11.562Z,10.60
2018-02-16T13:51:14.886Z,10.70
2018-02-16T13:52:17.400Z,10.80